Airfield :
LOGIN :

Register | Disclaimer

   EN    FR    IT 

 










Legend :    VFR   Marginal VFR   IFR   Intensive IFR   Very Intensive IFR
Visi :
Ceiling :
>= 8 km
>= 3000ft
5 to 8 km
1000 to 3000 ft
1500m to 5 km
500 to 1000 ft
800 to 1500m
200 to 500 ft
< 800m
< 200 ft
Symbols :   Thunderstorms  Fog  Heavy snow  Heavy precipitations  Wind > 20 kt
SIGMETs :     Misc.  Thunderstorms  Icing  Turbulence  Mountain Waves  Volcanic Ashes






- Airport Elevation : 526 ft
- IATA code : LTN


EGGW - London Luton

CURRENT METAR :
  • 170820Z AUTO 31011KT 9999 OVC019 04/02 Q1021

EXPIRED METARs :
  • 170750Z AUTO 30012KT 9999 BKN020 03/02 Q1021
  • 170720Z AUTO 31011KT 9999 SCT020 03/02 Q1020
  • 170650Z AUTO 31012KT 9999 BKN022 04/02 Q1020
  • 170620Z AUTO 30015KT 9999 FEW029 04/02 Q1019
  • 170550Z AUTO 30013KT 9999 SCT016 BKN021 04/02 Q1019

TAF TAF EGGW
Valid from the 17 at 06:00 until the 18 at 06:00 UTC


170458Z 1706/1806 29008KT 9999 FEW030
PROB30
TEMPO 1706/1707 8000 -SHRA BKN009
ATIS : +44 1582 395 204



MET'MAP, your aeronautical weather chart ! - Copyright ORBIFLY December 2007 - Disclaimer

ORBIFLY MET'MAP TEAM :

Programming & Development : Alexandra Zaïnal
Concept & original design : Baudouin d'Aumeries
Assistance for programming : Marc-Olivier Méhu
Technical & hardware support : Manuel Goepfert

Contact : metmap@orbifly.com




SOURCES & CREDITS :

   NOAA